createdAt,value
2016-03-28T13:01:42.791Z,18304
2016-03-28T13:02:11.635Z,18176
2016-03-28T13:03:11.794Z,17728
2016-03-28T13:04:12.015Z,17312
2016-03-28T13:05:11.814Z,17056
2016-03-28T13:06:11.833Z,17056
2016-03-28T13:07:11.835Z,17280
2016-03-28T13:08:11.900Z,17504
2016-03-28T13:09:11.886Z,17600
2016-03-28T13:10:11.889Z,17568
2016-03-28T13:11:11.908Z,17376
2016-03-28T13:12:11.941Z,17088
2016-03-28T13:13:11.929Z,16704
2016-03-28T13:14:11.932Z,16384
2016-03-28T13:15:11.981Z,15876
2016-03-28T13:16:11.952Z,15492
2016-03-28T13:17:12.018Z,15140
2016-03-28T13:18:11.989Z,14912
2016-03-28T13:19:12.007Z,14664
2016-03-28T13:20:12.010Z,14380
2016-03-28T13:21:12.232Z,14024
2016-03-28T13:22:12.046Z,13724
2016-03-28T13:23:12.112Z,13480
2016-03-28T13:24:12.286Z,13260
2016-03-28T13:25:12.086Z,13064
2016-03-28T13:26:12.104Z,12876
2016-03-28T13:27:12.122Z,12720
2016-03-28T13:28:12.187Z,12648
2016-03-28T13:29:12.144Z,12660
2016-03-28T13:31:12.149Z,12592
2016-03-28T13:32:12.167Z,12440
2016-03-28T13:33:12.185Z,12184
2016-03-28T13:34:12.203Z,11856
2016-03-28T13:35:11.488Z,11516
2016-03-28T13:36:12.241Z,11232
2016-03-28T13:37:12.430Z,11044
2016-03-28T13:38:12.371Z,10976
2016-03-28T13:39:12.264Z,11040
2016-03-28T13:40:12.266Z,11212
2016-03-28T13:41:12.285Z,11424
2016-03-28T13:42:12.960Z,11668
2016-03-28T13:43:12.306Z,11916
2016-03-28T13:44:12.324Z,12160
2016-03-28T13:45:12.343Z,12372
2016-03-28T13:46:12.346Z,12536
2016-03-28T13:47:12.363Z,12684
2016-03-28T13:48:12.398Z,12904
2016-03-28T13:49:12.384Z,13208
2016-03-28T13:50:12.403Z,13476
2016-03-28T13:51:26.515Z,13624
2016-03-28T13:52:12.408Z,13512
2016-03-28T13:53:12.552Z,13176
2016-03-28T13:54:12.445Z,12692
2016-03-28T13:55:12.464Z,12140
2016-03-28T13:56:12.513Z,11656
2016-03-28T13:57:12.484Z,11328
2016-03-28T13:58:12.487Z,11180
2016-03-28T13:59:12.520Z,11172
2016-03-28T14:00:12.513Z,11212
2016-03-28T14:01:12.515Z,11228
2016-03-28T14:02:12.846Z,11216
2016-03-28T14:03:12.552Z,11256
2016-03-28T14:04:12.554Z,11424
2016-03-28T14:05:12.573Z,11732
2016-03-28T14:06:12.576Z,12144
2016-03-28T14:07:12.595Z,12572
2016-03-28T14:08:12.473Z,12932
2016-03-28T14:09:12.616Z,13152
2016-03-28T14:10:12.619Z,13160
2016-03-28T14:11:12.652Z,13012
2016-03-28T14:12:12.671Z,12772
2016-03-28T14:13:12.674Z,12476
2016-03-28T14:14:12.677Z,12172
2016-03-28T14:15:12.694Z,11904
2016-03-28T14:16:12.697Z,11716
2016-03-28T14:17:12.700Z,11652
2016-03-28T14:18:12.718Z,11784
2016-03-28T14:19:12.580Z,12056
2016-03-28T14:20:12.755Z,12472
2016-03-28T14:21:12.774Z,12988
2016-03-28T14:22:12.761Z,13584
2016-03-28T14:23:12.810Z,14232
2016-03-28T14:24:12.782Z,14880
2016-03-28T14:25:12.800Z,15424
2016-03-28T14:26:12.802Z,15768
2016-03-28T14:27:12.837Z,15968
2016-03-28T14:28:12.840Z,15696
2016-03-28T14:29:13.045Z,15364
2016-03-28T14:30:12.845Z,14956
2016-03-28T14:31:12.879Z,14556
2016-03-28T14:32:12.740Z,14216
2016-03-28T14:33:12.899Z,13952
2016-03-28T14:34:12.902Z,13640
2016-03-28T14:35:12.904Z,13268
2016-03-28T14:36:12.907Z,12908
2016-03-28T14:37:12.942Z,12636
2016-03-28T14:38:12.976Z,12408
2016-03-28T14:39:12.962Z,12120
2016-03-28T14:40:12.997Z,11676
2016-03-28T14:41:12.828Z,11144
2016-03-28T14:42:12.986Z,10572
2016-03-28T14:43:13.880Z,9984
2016-03-28T14:44:13.070Z,9396
2016-03-28T14:45:13.135Z,8920
2016-03-28T14:46:13.028Z,8572
2016-03-28T14:47:13.047Z,8396
2016-03-28T14:48:13.080Z,8264
2016-03-28T14:49:13.286Z,8092
2016-03-28T14:50:13.383Z,7796
2016-03-28T14:51:12.041Z,7316
2016-03-28T14:52:13.123Z,6584
2016-03-28T14:53:13.141Z,5800
2016-03-28T14:54:13.128Z,5168
2016-03-28T14:55:13.568Z,4828
2016-03-28T14:56:13.336Z,4816
2016-03-28T14:57:13.308Z,5004
2016-03-28T14:58:13.311Z,5180
2016-03-28T14:59:13.188Z,5204
2016-03-28T15:00:13.222Z,5016
2016-03-28T15:01:13.429Z,4656
2016-03-28T15:02:13.087Z,4244
2016-03-28T15:03:13.668Z,3864
2016-03-28T15:04:13.514Z,3544
2016-03-28T15:05:13.267Z,3328
2016-03-28T15:06:13.270Z,3224
2016-03-28T15:07:12.959Z,3236
2016-03-28T15:08:13.540Z,3428
2016-03-28T15:09:13.450Z,3752
2016-03-28T15:10:13.467Z,4064
2016-03-28T15:11:13.408Z,4424
2016-03-28T15:12:13.317Z,4868
2016-03-28T15:13:14.350Z,5092
2016-03-28T15:26:12.932Z,5564
2016-03-28T15:27:27.451Z,6128
2016-03-28T15:28:13.204Z,6424
2016-03-28T15:29:14.097Z,6772
2016-03-28T15:30:27.037Z,7012
2016-03-28T15:31:12.930Z,6892
2016-03-28T15:32:41.387Z,6624
2016-03-28T15:33:12.982Z,6468
2016-03-28T15:34:13.220Z,6192
2016-03-28T15:35:13.816Z,5864
2016-03-28T15:36:13.225Z,5488
2016-03-28T15:37:12.993Z,5136
2016-03-28T15:39:13.248Z,4592
2016-03-28T15:40:13.267Z,4376
2016-03-28T15:41:13.270Z,4144
2016-03-28T15:42:13.366Z,3888
2016-03-28T15:43:27.556Z,3568
2016-03-28T15:44:13.059Z,3412
2016-03-28T15:45:13.093Z,3296
2016-03-28T15:46:13.158Z,3284
2016-03-28T15:47:13.286Z,3364
2016-03-28T15:48:13.133Z,3496
2016-03-28T15:49:13.275Z,3648
2016-03-28T15:50:13.294Z,3812
2016-03-28T15:51:27.625Z,4168
2016-03-28T15:52:13.143Z,4440
2016-03-28T15:53:13.802Z,4796
2016-03-28T15:54:13.399Z,5100
2016-03-28T15:55:13.182Z,5360
2016-03-28T15:56:13.404Z,5556
2016-03-28T15:57:13.188Z,5636
2016-03-28T15:58:13.393Z,5600
2016-03-28T15:59:13.662Z,5536
2016-03-28T16:00:13.430Z,5468
2016-03-28T16:01:13.293Z,5472
2016-03-28T16:02:13.232Z,5672
2016-03-28T16:03:13.454Z,6076
2016-03-28T16:04:13.519Z,6688
2016-03-28T16:05:13.256Z,7528
2016-03-28T16:06:13.509Z,8308
2016-03-28T16:07:13.731Z,8856
2016-03-28T16:08:12.967Z,9140
2016-03-28T16:09:13.626Z,9052
2016-03-28T16:10:13.332Z,8736
2016-03-28T16:11:13.522Z,8348
2016-03-28T16:14:13.358Z,8136
2016-03-28T16:15:27.861Z,8704
2016-03-28T16:17:13.992Z,8696
2016-03-28T16:18:13.385Z,8364
2016-03-28T16:19:13.388Z,7852
2016-03-28T16:20:13.406Z,7032
2016-03-28T16:21:12.939Z,6628
2016-03-28T16:22:13.646Z,6248
2016-03-28T16:23:13.680Z,5556
2016-03-28T16:24:13.447Z,4968
2016-03-28T16:25:14.075Z,4644
2016-03-28T16:26:13.688Z,4408
2016-03-28T16:27:13.752Z,4152
2016-03-28T16:28:13.427Z,4012
2016-03-28T16:29:13.899Z,4072
2016-03-28T16:30:27.604Z,4168
2016-03-28T16:31:13.560Z,4160
2016-03-28T16:32:13.563Z,4032
2016-03-28T16:35:15.040Z,3640
2016-03-28T16:36:14.434Z,3720
2016-03-28T16:37:13.998Z,3812
2016-03-28T16:38:14.048Z,3688
2016-03-28T16:39:14.754Z,3388
2016-03-28T16:40:14.116Z,3036
2016-03-28T16:41:13.853Z,2740
2016-03-28T16:42:13.825Z,2572
2016-03-28T16:43:13.780Z,2440
2016-03-28T16:44:13.986Z,2316
2016-03-28T16:45:14.129Z,2240
2016-03-28T16:46:13.821Z,2216
2016-03-28T16:47:14.043Z,2268
2016-03-28T16:48:14.107Z,2348
2016-03-28T16:49:14.032Z,2428
2016-03-28T16:50:14.893Z,2496
2016-03-28T16:51:14.443Z,2512
2016-03-28T16:52:14.070Z,2480
2016-03-28T16:53:13.573Z,2492
2016-03-28T16:54:13.842Z,2540
2016-03-28T16:55:14.173Z,2528
2016-03-28T16:56:14.223Z,2440
2016-03-28T16:57:13.210Z,2304
2016-03-28T16:58:13.978Z,2144
2016-03-28T16:59:13.981Z,1964
2016-03-28T17:00:13.812Z,1796
2016-03-28T17:01:15.752Z,1656
2016-03-28T17:02:15.411Z,1560
2016-03-28T17:03:15.210Z,1456
2016-03-28T17:04:14.791Z,1360
2016-03-28T17:05:14.074Z,1288
2016-03-28T17:06:14.484Z,1224
2016-03-28T17:07:14.580Z,1176
2016-03-28T17:08:14.036Z,1128
2016-03-28T17:09:14.242Z,1084
2016-03-28T17:10:42.151Z,1040
2016-03-28T17:11:13.966Z,1016
2016-03-28T17:12:13.969Z,964
2016-03-28T17:13:42.549Z,876
2016-03-28T17:14:14.349Z,836
2016-03-28T17:15:28.321Z,780
2016-03-28T17:16:14.401Z,760
2016-03-28T17:17:14.155Z,720
2016-03-28T17:18:14.688Z,652
2016-03-28T17:19:13.722Z,604
2016-03-28T17:20:14.291Z,576
2016-03-28T17:21:14.399Z,540
2016-03-28T17:22:14.387Z,476
2016-03-28T17:23:14.874Z,416
2016-03-28T17:24:28.641Z,364
2016-03-28T17:25:13.894Z,340
2016-03-28T17:26:14.037Z,304
2016-03-28T17:27:14.039Z,268
2016-03-28T17:28:14.042Z,240
2016-03-28T17:29:14.483Z,216
2016-03-28T17:30:14.438Z,196
2016-03-28T17:31:14.050Z,176
2016-03-28T17:32:14.381Z,160
2016-03-28T17:33:14.790Z,140
2016-03-28T17:34:14.105Z,128
2016-03-28T17:35:14.233Z,112
2016-03-28T17:36:14.299Z,100
2016-03-28T17:37:14.504Z,88
2016-03-28T17:38:14.585Z,76
2016-03-28T17:39:14.697Z,68
2016-03-28T17:41:14.577Z,48
2016-03-28T17:42:14.143Z,40
2016-03-28T17:43:14.145Z,36
2016-03-28T17:44:14.570Z,24
2016-03-28T17:45:14.010Z,20
2016-03-28T17:46:14.373Z,12
2016-03-28T17:47:14.187Z,8
2016-03-28T17:48:14.393Z,4
2016-03-28T17:49:14.208Z,4
2016-03-28T17:50:14.398Z,4
2016-03-28T17:51:14.214Z,4
2016-03-28T17:52:14.247Z,0
2016-03-28T17:53:14.468Z,4
2016-03-28T17:54:14.393Z,4
2016-03-28T17:56:14.492Z,0
2016-03-28T17:57:14.464Z,0
2016-03-28T17:58:14.450Z,0
2016-03-28T17:59:14.516Z,0
2016-03-28T18:00:14.675Z,0
2016-03-28T18:01:14.475Z,0
2016-03-28T18:02:14.290Z,0
2016-03-28T18:03:14.496Z,0
2016-03-28T18:04:14.639Z,0
2016-03-28T18:05:14.516Z,0
2016-03-28T18:06:14.972Z,0
2016-03-28T18:07:14.568Z,0
2016-03-28T18:08:14.743Z,0
2016-03-28T18:09:14.824Z,0
2016-03-28T18:10:14.592Z,0
2016-03-28T18:11:14.595Z,0
2016-03-28T18:12:14.613Z,0
2016-03-28T18:13:14.570Z,0
2016-03-28T18:14:28.493Z,0
2016-03-28T18:15:28.731Z,0
2016-03-28T18:16:14.624Z,0
2016-03-28T18:17:14.392Z,0
2016-03-28T18:18:14.395Z,0
2016-03-28T18:19:14.398Z,0
2016-03-28T18:20:14.417Z,0
2016-03-28T18:21:14.684Z,0
2016-03-28T18:22:14.437Z,0
2016-03-28T18:23:14.878Z,0
2016-03-28T18:24:14.615Z,0
2016-03-28T18:25:14.477Z,0
2016-03-28T18:26:14.480Z,0
2016-03-28T18:27:14.483Z,0
2016-03-28T18:28:42.875Z,0
2016-03-28T18:29:14.503Z,0
2016-03-28T18:30:28.772Z,0
2016-03-28T18:32:14.527Z,0
2016-03-28T18:33:28.827Z,0
2016-03-28T18:34:14.516Z,0
2016-03-28T18:35:14.754Z,0
2016-03-28T18:36:14.569Z,0
2016-03-28T18:37:14.555Z,0
2016-03-28T18:38:14.808Z,0
2016-03-28T18:39:14.717Z,0
2016-03-28T18:40:13.643Z,0
2016-03-28T18:41:14.582Z,0
2016-03-28T18:42:15.007Z,0
2016-03-28T18:43:14.806Z,0
2016-03-28T18:44:14.090Z,0
2016-03-28T18:45:28.718Z,0
2016-03-28T18:46:14.595Z,0
2016-03-28T18:47:29.129Z,0
2016-03-28T18:48:15.054Z,0
2016-03-28T18:49:14.838Z,0
2016-03-28T18:50:14.576Z,0
2016-03-28T18:51:14.656Z,0
2016-03-28T18:52:14.690Z,0
2016-03-28T18:53:15.083Z,0
2016-03-28T18:54:15.164Z,0
2016-03-28T18:55:14.167Z,0
2016-03-28T18:56:14.700Z,0
2016-03-28T18:57:14.688Z,0
2016-03-28T18:59:14.225Z,0
2016-03-28T19:00:14.899Z,0
2016-03-28T19:01:15.136Z,0
2016-03-28T19:02:14.951Z,0
2016-03-28T19:03:14.705Z,0
2016-03-28T19:04:14.722Z,0
2016-03-28T19:05:14.959Z,0
2016-03-28T19:06:14.744Z,0
2016-03-28T19:07:14.793Z,0
2016-03-28T19:08:14.728Z,0
2016-03-28T19:09:14.982Z,0
2016-03-28T19:10:14.750Z,0
2016-03-28T19:11:14.972Z,0
2016-03-28T19:12:14.772Z,0
2016-03-28T19:13:15.227Z,0
2016-03-28T19:14:14.808Z,0
2016-03-28T19:15:15.013Z,0
2016-03-28T19:16:14.797Z,0
2016-03-28T19:17:14.799Z,0
2016-03-28T19:18:14.834Z,0
2016-03-28T19:19:28.899Z,0
2016-03-28T19:20:14.808Z,0
2016-03-28T19:21:14.827Z,0
2016-03-28T19:22:15.251Z,0
2016-03-28T19:23:14.847Z,0
2016-03-28T19:24:14.850Z,0
2016-03-28T19:25:15.056Z,0
2016-03-28T19:26:15.074Z,0
2016-03-28T19:27:15.280Z,0
2016-03-28T19:28:14.845Z,0
2016-03-28T19:29:15.052Z,0
2016-03-28T19:30:15.304Z,0
2016-03-28T19:31:15.056Z,0
2016-03-28T19:32:14.888Z,0
2016-03-28T19:34:14.440Z,0
2016-03-28T19:35:14.880Z,0
2016-03-28T19:36:14.898Z,0
2016-03-28T19:37:14.932Z,0
2016-03-28T19:38:15.295Z,0
2016-03-28T19:39:15.031Z,0
2016-03-28T19:40:15.127Z,0
2016-03-28T19:41:15.334Z,0
2016-03-28T19:42:14.914Z,0
2016-03-28T19:43:14.932Z,0
2016-03-28T19:45:14.969Z,0
2016-03-28T19:46:14.956Z,0
2016-03-28T19:47:15.022Z,0
2016-03-28T19:48:14.961Z,0
2016-03-28T19:49:14.964Z,0
2016-03-28T19:50:14.967Z,0
2016-03-28T19:51:14.985Z,0
2016-03-28T19:52:43.363Z,0
2016-03-28T19:53:15.210Z,0
2016-03-28T19:54:29.322Z,0
2016-03-28T19:55:15.012Z,0
2016-03-28T19:56:14.999Z,0
2016-03-28T19:57:29.111Z,0
2016-03-28T19:58:15.020Z,0
2016-03-28T19:59:15.038Z,0
2016-03-28T20:00:15.009Z,0
2016-03-28T20:01:15.074Z,0
2016-03-28T20:02:15.015Z,0
2016-03-28T20:03:15.252Z,0
2016-03-28T20:04:15.457Z,0
2016-03-28T20:05:15.039Z,0
2016-03-28T20:06:29.573Z,0
2016-03-28T20:07:14.575Z,0
2016-03-28T20:08:15.047Z,0
2016-03-28T20:09:15.268Z,0
2016-03-28T20:10:15.052Z,0
2016-03-28T20:11:15.273Z,0
2016-03-28T20:12:15.292Z,0
2016-03-28T20:13:15.092Z,0
2016-03-28T20:14:15.095Z,0
2016-03-28T20:15:15.362Z,0
2016-03-28T20:16:15.771Z,0
2016-03-28T20:17:14.822Z,0
2016-03-28T20:18:29.199Z,0
2016-03-28T20:19:15.138Z,0
2016-03-28T20:20:14.875Z,0
2016-03-28T20:21:15.128Z,0
2016-03-28T20:22:15.366Z,0
2016-03-28T20:23:15.134Z,0
2016-03-28T20:24:15.340Z,0
2016-03-28T20:25:15.779Z,0
2016-03-28T20:26:15.142Z,0
2016-03-28T20:27:15.363Z,0
2016-03-28T20:28:14.882Z,0
2016-03-28T20:29:15.212Z,0
2016-03-28T20:30:15.402Z,0
2016-03-28T20:31:15.187Z,0
2016-03-28T20:32:15.612Z,0
2016-03-28T20:33:15.192Z,0
2016-03-28T20:34:15.398Z,0
2016-03-28T20:35:29.588Z,0
2016-03-28T20:36:15.403Z,0
2016-03-28T20:37:15.218Z,0
2016-03-28T20:38:15.408Z,0
2016-03-28T20:39:15.459Z,0
2016-03-28T20:40:15.242Z,0
2016-03-28T20:41:14.714Z,0
2016-03-28T20:42:15.217Z,0
2016-03-28T20:43:29.344Z,0
2016-03-28T20:44:15.222Z,0
2016-03-28T20:45:15.240Z,0
2016-03-28T20:46:15.258Z,0
2016-03-28T20:47:15.869Z,0
2016-03-28T20:48:15.466Z,0
2016-03-28T20:49:15.282Z,0
2016-03-28T20:50:15.519Z,0
2016-03-28T20:51:15.272Z,0
2016-03-28T20:52:15.305Z,0
2016-03-28T20:53:14.808Z,0
2016-03-28T20:54:15.483Z,0
2016-03-28T20:55:15.313Z,0
2016-03-28T20:56:15.566Z,0
2016-03-28T20:57:29.585Z,0
2016-03-28T20:58:15.446Z,0
2016-03-28T20:59:15.544Z,0
2016-03-28T21:00:15.437Z,0
2016-03-28T21:01:15.329Z,0
2016-03-28T21:02:14.833Z,0
2016-03-28T21:03:15.366Z,0
2016-03-28T21:04:15.338Z,0
2016-03-28T21:05:15.590Z,0
2016-03-28T21:06:15.374Z,0
2016-03-28T21:07:15.361Z,0
2016-03-28T21:08:15.365Z,0
2016-03-28T21:09:15.367Z,0
2016-03-28T21:10:15.384Z,0
2016-03-28T21:11:15.372Z,0
2016-03-28T21:12:15.844Z,0
2016-03-28T21:13:15.393Z,0
2016-03-28T21:14:15.334Z,0
2016-03-28T21:15:15.414Z,0
2016-03-28T21:16:15.651Z,0
2016-03-28T21:17:15.436Z,0
2016-03-28T21:18:29.735Z,0
2016-03-28T21:19:15.659Z,0
2016-03-28T21:20:15.411Z,0
2016-03-28T21:21:15.431Z,0
2016-03-28T21:22:15.417Z,0
2016-03-28T21:23:15.419Z,0
2016-03-28T21:24:15.657Z,0
2016-03-28T21:25:15.863Z,0
2016-03-28T21:26:15.475Z,0
2016-03-28T21:27:15.869Z,0
2016-03-28T21:28:15.496Z,0
2016-03-28T21:29:15.858Z,0
2016-03-28T21:30:15.455Z,0
2016-03-28T21:31:15.707Z,0
2016-03-28T21:32:15.475Z,0
2016-03-28T21:33:15.696Z,0
2016-03-28T21:34:15.465Z,0
2016-03-28T21:35:15.687Z,0
2016-03-28T21:36:15.471Z,0
2016-03-28T21:37:15.692Z,0
2016-03-28T21:38:15.476Z,0
2016-03-28T21:39:15.495Z,0
2016-03-28T21:40:16.278Z,0
2016-03-28T21:41:15.500Z,0
2016-03-28T21:42:15.502Z,0
2016-03-28T21:43:15.724Z,0
2016-03-28T21:44:15.523Z,0
2016-03-28T21:45:15.729Z,0
2016-03-28T21:46:15.514Z,0
2016-03-28T21:47:15.516Z,0
2016-03-28T21:49:15.523Z,0
2016-03-28T21:50:15.220Z,0
2016-03-28T21:51:15.073Z,0
2016-03-28T21:52:15.707Z,0
2016-03-28T21:53:15.500Z,0
2016-03-28T21:54:15.500Z,0
2016-03-28T21:55:15.702Z,0
2016-03-28T21:56:15.561Z,0
2016-03-28T21:57:15.484Z,0
2016-03-28T21:58:15.484Z,0
2016-03-28T21:59:15.500Z,0
2016-03-28T22:00:29.798Z,0
2016-03-28T22:01:15.503Z,0
2016-03-28T22:02:15.943Z,0
2016-03-28T22:03:15.695Z,0
2016-03-28T22:05:15.512Z,0
2016-03-28T22:06:14.779Z,0
2016-03-28T22:07:15.501Z,0
2016-03-28T22:08:15.535Z,0
2016-03-28T22:09:15.506Z,0
2016-03-28T22:10:15.601Z,0
2016-03-28T22:11:15.916Z,0
2016-03-28T22:12:15.934Z,0
2016-03-28T22:13:15.547Z,0
2016-03-28T22:14:15.752Z,0
2016-03-28T22:15:15.521Z,0
2016-03-28T22:16:15.523Z,0
2016-03-28T22:17:15.526Z,0
2016-03-28T22:18:16.356Z,0
2016-03-28T22:19:15.531Z,0
2016-03-28T22:20:15.548Z,0
2016-03-28T22:21:15.552Z,0
2016-03-28T22:22:15.586Z,0
2016-03-28T22:23:15.573Z,0
2016-03-28T22:24:15.560Z,0
2016-03-28T22:25:15.703Z,0
2016-03-28T22:26:16.003Z,0
2016-03-28T22:27:15.787Z,0
2016-03-28T22:28:15.789Z,0
2016-03-28T22:29:15.636Z,0
2016-03-28T22:30:15.108Z,0
2016-03-28T22:31:15.564Z,0
2016-03-28T22:32:15.581Z,0
2016-03-28T22:33:15.569Z,0
2016-03-28T22:34:15.587Z,0
2016-03-28T22:35:15.996Z,0
2016-03-28T22:36:15.795Z,0
2016-03-28T22:37:15.595Z,0
2016-03-28T22:38:15.597Z,0
2016-03-28T22:39:16.397Z,0
2016-03-28T22:40:15.681Z,0
2016-03-28T22:41:15.637Z,0
2016-03-28T22:42:29.702Z,0
2016-03-28T22:43:16.002Z,0
2016-03-28T22:44:15.598Z,0
2016-03-28T22:45:15.616Z,0
2016-03-28T22:46:15.822Z,0
2016-03-28T22:47:15.637Z,0
2016-03-28T22:48:15.827Z,0
2016-03-28T22:49:15.642Z,0
2016-03-28T22:50:15.646Z,0
2016-03-28T22:51:15.679Z,0
2016-03-28T22:53:15.638Z,0
2016-03-28T22:54:15.640Z,0
2016-03-28T22:55:15.987Z,0
2016-03-28T22:56:15.912Z,0
2016-03-28T22:58:15.683Z,0
2016-03-28T22:59:15.372Z,0
2016-03-28T23:00:16.001Z,0
2016-03-28T23:01:15.659Z,0
2016-03-28T23:02:15.678Z,0
2016-03-28T23:03:15.525Z,0
2016-03-28T23:04:15.667Z,0
2016-03-28T23:05:15.670Z,0
2016-03-28T23:06:15.892Z,0
2016-03-28T23:07:15.675Z,0
2016-03-28T23:08:15.663Z,0
2016-03-28T23:09:15.681Z,0
2016-03-28T23:10:15.434Z,0
2016-03-28T23:11:15.921Z,0
2016-03-28T23:12:15.689Z,0
2016-03-28T23:13:15.707Z,0
2016-03-28T23:14:15.710Z,0
2016-03-28T23:15:15.915Z,0
2016-03-28T23:16:15.716Z,0
2016-03-28T23:17:15.734Z,0
2016-03-28T23:18:15.907Z,0
2016-03-28T23:19:15.754Z,0
2016-03-28T23:20:15.726Z,0
2016-03-28T23:21:15.713Z,0
2016-03-28T23:22:15.732Z,0
2016-03-28T23:23:15.750Z,0
2016-03-28T23:24:16.128Z,0
2016-03-28T23:25:15.567Z,0
2016-03-28T23:26:29.852Z,0
2016-03-28T23:27:15.932Z,0
2016-03-28T23:28:15.731Z,0
2016-03-28T23:29:15.751Z,0
2016-03-28T23:30:15.940Z,0
2016-03-28T23:31:15.740Z,0
2016-03-28T23:32:15.743Z,0
2016-03-28T23:33:15.745Z,0
2016-03-28T23:34:15.780Z,0
2016-03-28T23:35:15.750Z,0
2016-03-28T23:36:15.973Z,0
2016-03-28T23:37:15.975Z,0
2016-03-28T23:38:15.743Z,0
2016-03-28T23:39:30.074Z,0
2016-03-28T23:40:16.014Z,0
2016-03-28T23:41:15.985Z,0
2016-03-28T23:42:15.786Z,0
2016-03-28T23:43:15.772Z,0
2016-03-28T23:44:15.775Z,0
2016-03-28T23:45:15.840Z,0
2016-03-28T23:46:15.983Z,0
2016-03-28T23:47:15.986Z,0
2016-03-28T23:48:15.770Z,0
2016-03-28T23:49:15.788Z,0
2016-03-28T23:50:15.776Z,0
2016-03-28T23:51:16.184Z,0
2016-03-28T23:52:15.828Z,0
2016-03-28T23:53:15.815Z,0
2016-03-28T23:54:15.802Z,0
2016-03-28T23:55:29.914Z,0
2016-03-28T23:56:15.995Z,0
2016-03-28T23:57:16.028Z,0
2016-03-28T23:58:29.906Z,0
2016-03-28T23:59:15.815Z,0
